createdAt,value
2023-02-18T00:01:22.267Z,8.82
2023-02-18T00:03:48.704Z,8.66
2023-02-18T00:06:15.101Z,8.71
2023-02-18T00:08:41.466Z,8.24
2023-02-18T00:11:07.818Z,8.71
2023-02-18T00:13:34.159Z,8.93
2023-02-18T00:16:00.510Z,9.61
2023-02-18T00:18:26.871Z,9.10
2023-02-18T00:20:53.238Z,9.34
2023-02-18T00:23:19.620Z,9.27
2023-02-18T00:25:45.982Z,8.87
2023-02-18T00:28:12.348Z,8.59
2023-02-18T00:30:38.696Z,8.98
2023-02-18T00:33:05.024Z,9.18
2023-02-18T00:35:31.408Z,9.34
2023-02-18T00:37:57.809Z,9.36
2023-02-18T00:40:24.159Z,8.88
2023-02-18T00:42:50.492Z,8.26
2023-02-18T00:45:16.869Z,8.05
2023-02-18T00:47:43.224Z,7.96
2023-02-18T00:50:09.597Z,8.17
2023-02-18T00:52:35.949Z,7.73
2023-02-18T00:55:02.295Z,8.63
2023-02-18T00:57:28.625Z,8.00
2023-02-18T00:59:55.020Z,7.68
2023-02-18T01:02:21.402Z,8.08
2023-02-18T01:04:47.837Z,7.92
2023-02-18T01:07:14.240Z,7.88
2023-02-18T01:09:40.590Z,7.94
2023-02-18T01:12:06.930Z,8.16
2023-02-18T01:14:33.303Z,8.12
2023-02-18T01:16:59.652Z,8.41
2023-02-18T01:19:25.988Z,8.25
2023-02-18T01:21:52.388Z,8.80
2023-02-18T01:24:18.776Z,8.58
2023-02-18T01:26:45.181Z,8.48
2023-02-18T01:29:11.531Z,8.81
2023-02-18T01:31:38.004Z,8.95
2023-02-18T01:34:04.387Z,8.67
2023-02-18T01:36:30.754Z,8.10
2023-02-18T01:38:57.140Z,8.61
2023-02-18T01:41:23.541Z,9.03
2023-02-18T01:43:49.884Z,8.75
2023-02-18T01:46:16.269Z,9.27
2023-02-18T01:48:42.623Z,10.28
2023-02-18T01:51:08.967Z,10.61
2023-02-18T01:53:35.355Z,10.92
2023-02-18T01:56:01.734Z,10.16
2023-02-18T01:58:28.122Z,11.05
2023-02-18T02:00:54.524Z,10.67
2023-02-18T02:03:20.948Z,10.78
2023-02-18T02:05:48.454Z,10.88
2023-02-18T02:08:14.799Z,10.69
2023-02-18T02:10:41.143Z,11.15
2023-02-18T02:13:07.486Z,11.66
2023-02-18T02:15:33.880Z,11.82
2023-02-18T02:18:00.264Z,11.13
2023-02-18T02:20:26.626Z,11.29
2023-02-18T02:22:52.966Z,11.47
2023-02-18T02:25:19.303Z,11.57
2023-02-18T02:27:45.668Z,12.53
2023-02-18T02:30:12.071Z,11.79
2023-02-18T02:32:38.505Z,11.24
2023-02-18T02:35:04.891Z,11.50
2023-02-18T02:37:31.255Z,11.00
2023-02-18T02:39:57.609Z,10.90
2023-02-18T02:42:23.997Z,11.27
2023-02-18T02:44:50.346Z,10.97
2023-02-18T02:47:16.680Z,11.35
2023-02-18T02:49:43.018Z,10.40
2023-02-18T02:52:09.409Z,11.28
2023-02-18T02:54:35.835Z,10.79
2023-02-18T02:57:02.228Z,10.40
2023-02-18T02:59:28.617Z,10.09
2023-02-18T03:01:55.049Z,10.04
2023-02-18T03:04:21.444Z,10.87
2023-02-18T03:06:47.842Z,10.54
2023-02-18T03:09:14.242Z,11.04
2023-02-18T03:11:40.618Z,11.06
2023-02-18T03:14:06.992Z,11.29
2023-02-18T03:16:33.368Z,11.43
2023-02-18T03:18:59.717Z,11.60
2023-02-18T03:21:26.097Z,11.18
2023-02-18T03:23:52.503Z,11.29
2023-02-18T03:26:18.896Z,10.99
2023-02-18T03:28:45.295Z,11.62
2023-02-18T03:31:11.722Z,11.07
2023-02-18T03:33:38.141Z,11.08
2023-02-18T03:36:04.542Z,11.57
2023-02-18T03:38:30.883Z,10.83
2023-02-18T03:40:57.268Z,10.67
2023-02-18T03:43:23.623Z,11.18
2023-02-18T03:45:49.977Z,10.95
2023-02-18T03:48:16.352Z,10.73
2023-02-18T03:50:42.751Z,10.78
2023-02-18T03:53:09.143Z,10.82
2023-02-18T03:55:35.495Z,10.77
2023-02-18T03:58:01.891Z,10.65
2023-02-18T04:00:28.239Z,10.47
2023-02-18T04:02:54.642Z,10.29
2023-02-18T04:05:21.046Z,10.94
2023-02-18T04:07:47.433Z,11.83
2023-02-18T04:10:13.824Z,11.88
2023-02-18T04:12:40.203Z,10.61
2023-02-18T04:15:06.574Z,11.49
2023-02-18T04:17:32.954Z,11.83
2023-02-18T04:19:59.328Z,11.40
2023-02-18T04:22:25.658Z,10.92
2023-02-18T04:24:52.034Z,10.66
2023-02-18T04:27:18.444Z,10.72
2023-02-18T04:29:44.845Z,10.94
2023-02-18T04:32:11.234Z,10.86
2023-02-18T04:34:37.584Z,10.70
2023-02-18T04:37:03.961Z,10.30
2023-02-18T04:39:30.310Z,10.92
2023-02-18T04:41:56.697Z,9.97
2023-02-18T04:44:23.096Z,10.23
2023-02-18T04:46:49.458Z,10.29
2023-02-18T04:49:15.804Z,9.91
2023-02-18T04:51:42.141Z,9.45
2023-02-18T04:54:08.525Z,9.04
2023-02-18T04:56:34.914Z,8.97
2023-02-18T04:59:01.302Z,8.25
2023-02-18T05:01:27.741Z,8.34
2023-02-18T05:03:54.165Z,8.34
2023-02-18T05:06:20.578Z,7.87
2023-02-18T05:08:47.044Z,8.08
2023-02-18T05:11:13.391Z,8.21
2023-02-18T05:13:39.758Z,7.85
2023-02-18T05:16:06.416Z,7.76
2023-02-18T05:18:32.915Z,7.22
2023-02-18T05:20:59.313Z,7.32
2023-02-18T05:23:25.674Z,7.13
2023-02-18T05:25:52.046Z,7.25
2023-02-18T05:28:18.380Z,7.66
2023-02-18T05:30:44.802Z,7.71
2023-02-18T05:33:11.202Z,7.60
2023-02-18T05:35:37.560Z,7.14
2023-02-18T05:38:03.942Z,6.80
2023-02-18T05:40:30.348Z,6.71
2023-02-18T05:42:56.690Z,7.24
2023-02-18T05:45:23.029Z,6.98
2023-02-18T05:47:49.538Z,7.00
2023-02-18T05:50:15.906Z,6.93
2023-02-18T05:52:42.296Z,7.04
2023-02-18T05:55:08.692Z,7.22
2023-02-18T05:57:35.119Z,7.00
2023-02-18T06:00:01.488Z,7.71
2023-02-18T06:02:27.861Z,7.45
2023-02-18T06:04:54.215Z,7.38
2023-02-18T06:07:20.682Z,8.27
2023-02-18T06:09:47.062Z,8.62
2023-02-18T06:12:13.455Z,8.29
2023-02-18T06:14:42.048Z,7.50
2023-02-18T06:17:08.483Z,7.09
2023-02-18T06:19:34.857Z,7.17
2023-02-18T06:22:01.204Z,6.94
2023-02-18T06:24:27.542Z,6.75
2023-02-18T06:26:53.917Z,6.55
2023-02-18T06:29:20.323Z,7.03
2023-02-18T06:31:46.783Z,7.16
2023-02-18T06:34:13.195Z,7.16
2023-02-18T06:36:39.549Z,7.40
2023-02-18T06:39:05.937Z,7.67
2023-02-18T06:41:32.280Z,7.69
2023-02-18T06:43:58.631Z,7.64
2023-02-18T06:46:25.001Z,7.49
2023-02-18T06:48:51.344Z,8.30
2023-02-18T06:51:17.684Z,8.50
2023-02-18T06:53:44.159Z,8.28
2023-02-18T06:56:10.792Z,8.49
2023-02-18T06:58:37.254Z,9.17
2023-02-18T07:01:03.644Z,9.14
2023-02-18T07:03:30.044Z,9.06
2023-02-18T07:05:56.449Z,9.18
2023-02-18T07:08:22.803Z,8.71
2023-02-18T07:10:49.148Z,8.69
2023-02-18T07:13:15.530Z,8.77
2023-02-18T07:15:41.892Z,9.05
2023-02-18T07:18:08.230Z,9.21
2023-02-18T07:20:34.570Z,9.17
2023-02-18T07:23:00.950Z,9.26
2023-02-18T07:25:27.331Z,9.02
2023-02-18T07:27:53.712Z,9.48
2023-02-18T07:30:20.182Z,9.03
2023-02-18T07:32:46.561Z,9.17
2023-02-18T07:35:12.922Z,9.35
2023-02-18T07:37:39.260Z,9.04
2023-02-18T07:40:05.650Z,8.61
2023-02-18T07:42:32.006Z,9.24
2023-02-18T07:44:58.381Z,9.70
2023-02-18T07:47:24.772Z,9.25
2023-02-18T07:49:51.123Z,9.38
2023-02-18T07:52:17.458Z,9.83
2023-02-18T07:54:43.799Z,12.01
2023-02-18T07:57:10.203Z,12.71
2023-02-18T07:59:36.591Z,13.25
2023-02-18T08:02:02.990Z,16.11
2023-02-18T08:04:29.458Z,13.37
2023-02-18T08:06:55.891Z,13.11
2023-02-18T08:09:22.295Z,13.15
2023-02-18T08:11:48.649Z,12.87
2023-02-18T08:14:14.997Z,12.34
2023-02-18T08:16:41.432Z,12.27
2023-02-18T08:19:07.852Z,12.28
2023-02-18T08:21:34.224Z,11.91
2023-02-18T08:24:00.612Z,10.86
2023-02-18T08:26:26.979Z,11.37
2023-02-18T08:28:53.375Z,10.23
2023-02-18T08:31:19.852Z,10.47
2023-02-18T08:33:46.309Z,10.81
2023-02-18T08:36:12.654Z,10.84
2023-02-18T08:38:38.998Z,10.81
2023-02-18T08:41:05.566Z,11.20
2023-02-18T08:43:31.984Z,11.25
2023-02-18T08:45:58.460Z,11.61
2023-02-18T08:48:24.883Z,11.57
2023-02-18T08:50:51.298Z,11.81
2023-02-18T08:53:17.651Z,11.46
2023-02-18T08:55:44.004Z,11.44
2023-02-18T08:58:10.346Z,11.33
2023-02-18T09:00:36.731Z,11.52
2023-02-18T09:05:43.335Z,10.59
2023-02-18T09:08:09.737Z,10.55
2023-02-18T09:10:36.092Z,10.24
2023-02-18T09:13:02.450Z,9.63
2023-02-18T09:15:28.821Z,9.38
2023-02-18T09:17:55.205Z,9.89
2023-02-18T09:20:21.562Z,9.71
2023-02-18T09:22:47.900Z,9.65
2023-02-18T09:25:14.313Z,9.59
2023-02-18T09:27:40.675Z,9.75
2023-02-18T09:30:07.088Z,9.48
2023-02-18T09:32:35.156Z,10.41
2023-02-18T09:35:01.868Z,10.72
2023-02-18T09:37:28.243Z,10.75
2023-02-18T09:39:54.642Z,10.96
2023-02-18T09:42:21.005Z,10.68
2023-02-18T09:44:47.352Z,10.90
2023-02-18T09:47:13.729Z,11.45
2023-02-18T09:49:40.102Z,11.16
2023-02-18T09:52:06.438Z,11.21
2023-02-18T09:54:32.790Z,11.13
2023-02-18T09:56:59.176Z,11.45
2023-02-18T09:59:25.580Z,10.87
2023-02-18T10:01:52.093Z,11.12
2023-02-18T10:04:18.536Z,11.13
2023-02-18T10:06:44.931Z,10.89
2023-02-18T10:09:11.326Z,11.07
2023-02-18T10:11:37.680Z,11.15
2023-02-18T10:14:04.316Z,10.68
2023-02-18T10:16:30.769Z,10.10
2023-02-18T10:18:57.137Z,10.45
2023-02-18T10:21:23.485Z,10.53
2023-02-18T10:23:49.823Z,10.09
2023-02-18T10:26:16.166Z,9.94
2023-02-18T10:28:42.526Z,10.03
2023-02-18T10:31:09.234Z,9.58
2023-02-18T10:33:35.787Z,10.24
2023-02-18T10:36:02.172Z,10.01
2023-02-18T10:38:28.529Z,9.21
2023-02-18T10:40:54.905Z,8.69
2023-02-18T10:43:21.260Z,8.63
2023-02-18T10:45:47.636Z,9.32
2023-02-18T10:48:13.991Z,9.33
2023-02-18T10:50:40.363Z,8.96
2023-02-18T10:53:06.705Z,9.44
2023-02-18T10:55:33.051Z,9.48
2023-02-18T10:57:59.393Z,9.12
2023-02-18T11:00:25.780Z,9.35
2023-02-18T11:02:52.184Z,9.37
2023-02-18T11:05:18.569Z,9.36
2023-02-18T11:07:44.922Z,9.22
2023-02-18T11:10:11.272Z,9.52
2023-02-18T11:12:37.648Z,9.48
2023-02-18T11:15:03.998Z,9.54
2023-02-18T11:17:30.374Z,9.59
2023-02-18T11:19:56.790Z,9.59
2023-02-18T11:22:23.140Z,9.81
2023-02-18T11:24:49.510Z,10.10
2023-02-18T11:27:15.911Z,10.49
2023-02-18T11:29:42.306Z,10.01
2023-02-18T11:32:08.758Z,10.19
2023-02-18T11:34:35.128Z,10.12
2023-02-18T11:37:01.482Z,9.75
2023-02-18T11:39:27.868Z,10.24
2023-02-18T11:41:54.224Z,10.39
2023-02-18T11:44:20.639Z,10.38
2023-02-18T11:46:47.044Z,10.08
2023-02-18T11:49:13.461Z,9.89
2023-02-18T11:51:39.841Z,9.85
2023-02-18T11:54:06.207Z,9.63
2023-02-18T11:56:32.586Z,9.68
2023-02-18T11:58:58.970Z,10.83
2023-02-18T12:01:25.328Z,10.50
2023-02-18T12:03:51.718Z,11.31
2023-02-18T12:06:18.083Z,11.03
2023-02-18T12:08:44.437Z,10.68
2023-02-18T12:11:11.068Z,10.51
2023-02-18T12:13:37.503Z,10.25
2023-02-18T12:16:04.257Z,11.22
2023-02-18T12:18:30.695Z,11.05
2023-02-18T12:20:57.081Z,10.79
2023-02-18T12:23:23.445Z,11.41
2023-02-18T12:25:49.794Z,10.66
2023-02-18T12:28:16.148Z,11.95
2023-02-18T12:30:42.547Z,11.84
2023-02-18T12:33:08.932Z,11.57
2023-02-18T12:35:35.278Z,11.24
2023-02-18T12:38:01.628Z,10.88
2023-02-18T12:40:28.022Z,10.72
2023-02-18T12:42:54.413Z,10.69
2023-02-18T12:45:20.805Z,10.88
2023-02-18T12:47:47.154Z,10.36
2023-02-18T12:50:13.538Z,10.51
2023-02-18T12:52:39.886Z,10.48
2023-02-18T12:55:06.228Z,10.51
2023-02-18T12:57:32.621Z,10.43
2023-02-18T12:59:59.016Z,10.31
2023-02-18T13:02:25.362Z,9.62
2023-02-18T13:04:51.746Z,9.90
2023-02-18T13:07:18.103Z,10.45
2023-02-18T13:09:44.442Z,10.50
2023-02-18T13:12:10.786Z,9.76
2023-02-18T13:14:37.164Z,10.16
2023-02-18T13:17:03.528Z,9.49
2023-02-18T13:19:29.876Z,9.46
2023-02-18T13:21:56.256Z,8.74
2023-02-18T13:24:22.639Z,8.88
2023-02-18T13:26:49.021Z,8.92
2023-02-18T13:29:15.416Z,9.13
2023-02-18T13:31:41.843Z,10.20
2023-02-18T13:34:08.291Z,9.31
2023-02-18T13:36:34.686Z,9.15
2023-02-18T13:39:01.078Z,9.28
2023-02-18T13:41:27.432Z,9.28
2023-02-18T13:43:53.814Z,9.71
2023-02-18T13:46:20.192Z,9.50
2023-02-18T13:48:46.551Z,9.59
2023-02-18T13:51:12.942Z,9.60
2023-02-18T13:53:39.296Z,9.54
2023-02-18T13:56:05.668Z,9.54
2023-02-18T13:58:32.064Z,9.46
2023-02-18T14:00:58.458Z,9.20
2023-02-18T14:03:24.811Z,9.40
2023-02-18T14:05:51.189Z,9.88
2023-02-18T14:08:17.625Z,10.47
2023-02-18T14:10:44.027Z,10.29
2023-02-18T14:13:10.380Z,10.64
2023-02-18T14:15:36.820Z,10.65
2023-02-18T14:18:03.199Z,9.99
2023-02-18T14:20:29.596Z,10.54
2023-02-18T14:22:55.954Z,10.23
2023-02-18T14:25:22.340Z,9.78
2023-02-18T14:27:48.699Z,10.02
2023-02-18T14:30:15.128Z,9.71
2023-02-18T14:32:41.522Z,9.63
2023-02-18T14:35:07.862Z,9.62
2023-02-18T14:37:34.246Z,9.77
2023-02-18T14:40:00.668Z,10.26
2023-02-18T14:42:27.023Z,9.69
2023-02-18T14:44:53.406Z,10.36
2023-02-18T14:47:19.759Z,10.64
2023-02-18T14:49:46.113Z,11.13
2023-02-18T14:52:12.497Z,10.78
2023-02-18T14:54:38.894Z,10.93
2023-02-18T14:57:05.289Z,10.58
2023-02-18T14:59:31.693Z,10.58
2023-02-18T15:01:58.090Z,10.57
2023-02-18T15:04:24.617Z,10.77
2023-02-18T15:06:51.001Z,10.42
2023-02-18T15:09:17.402Z,10.60
2023-02-18T15:11:43.797Z,10.15
2023-02-18T15:14:10.150Z,10.74
2023-02-18T15:16:36.533Z,10.00
2023-02-18T15:19:03.121Z,10.92
2023-02-18T15:21:29.542Z,10.71
2023-02-18T15:23:55.894Z,10.54
2023-02-18T15:26:22.325Z,10.58
2023-02-18T15:28:48.729Z,10.80
2023-02-18T15:31:15.720Z,10.51
2023-02-18T15:33:42.260Z,10.58
2023-02-18T15:36:08.643Z,10.79
2023-02-18T15:38:35.003Z,10.86
2023-02-18T15:41:01.420Z,11.36
2023-02-18T15:43:27.835Z,11.24
2023-02-18T15:45:54.247Z,11.47
2023-02-18T15:48:20.640Z,10.83
2023-02-18T15:50:47.002Z,10.85
2023-02-18T15:53:13.383Z,11.30
2023-02-18T15:55:39.742Z,11.52
2023-02-18T15:58:06.111Z,11.50
2023-02-18T16:00:32.536Z,11.85
2023-02-18T16:02:58.933Z,11.38
2023-02-18T16:05:25.331Z,10.79
2023-02-18T16:07:51.714Z,10.89
2023-02-18T16:10:18.112Z,10.85
2023-02-18T16:12:44.470Z,9.87
2023-02-18T16:15:10.865Z,9.76
2023-02-18T16:17:37.222Z,10.30
2023-02-18T16:20:05.629Z,10.45
2023-02-18T16:22:32.305Z,9.93
2023-02-18T16:24:58.674Z,10.12
2023-02-18T16:27:25.054Z,9.60
2023-02-18T16:29:51.443Z,9.87
2023-02-18T16:32:17.873Z,9.63
2023-02-18T16:34:44.282Z,9.27
2023-02-18T16:37:10.636Z,8.81
2023-02-18T16:39:36.983Z,8.68
2023-02-18T16:42:03.371Z,9.08
2023-02-18T16:44:29.722Z,9.46
2023-02-18T16:46:56.110Z,8.95
2023-02-18T16:49:22.492Z,9.16
2023-02-18T16:51:48.842Z,9.89
2023-02-18T16:54:15.233Z,9.52
2023-02-18T16:56:41.607Z,9.83
2023-02-18T16:59:07.981Z,10.14
2023-02-18T17:01:34.373Z,10.40
2023-02-18T17:04:00.804Z,10.10
2023-02-18T17:06:27.318Z,10.47
2023-02-18T17:08:53.713Z,9.91
2023-02-18T17:11:20.114Z,9.91
2023-02-18T17:13:46.464Z,10.17
2023-02-18T17:16:12.961Z,10.29
2023-02-18T17:18:39.441Z,11.14
2023-02-18T17:21:05.870Z,11.22
2023-02-18T17:23:32.275Z,11.47
2023-02-18T17:25:58.667Z,10.76
2023-02-18T17:28:25.019Z,11.69
2023-02-18T17:30:51.407Z,11.56
2023-02-18T17:33:17.810Z,11.22
2023-02-18T17:35:44.163Z,11.89
2023-02-18T17:38:10.510Z,11.66
2023-02-18T17:40:36.905Z,11.62
2023-02-18T17:43:03.440Z,11.66
2023-02-18T17:45:29.853Z,11.71
2023-02-18T17:47:56.216Z,11.70
2023-02-18T17:50:22.600Z,13.23
2023-02-18T17:52:48.968Z,12.79
2023-02-18T17:55:15.363Z,13.29
2023-02-18T17:57:41.715Z,14.15
2023-02-18T18:00:08.079Z,14.98
2023-02-18T18:02:34.424Z,14.64
2023-02-18T18:05:00.811Z,14.06
2023-02-18T18:07:27.250Z,14.06
2023-02-18T18:09:53.699Z,14.41
2023-02-18T18:12:20.109Z,13.21
2023-02-18T18:14:46.456Z,15.24
2023-02-18T18:17:12.896Z,17.83
2023-02-18T18:19:39.291Z,14.67
2023-02-18T18:22:05.671Z,14.48
2023-02-18T18:24:32.069Z,14.03
2023-02-18T18:26:58.559Z,13.71
2023-02-18T18:29:24.926Z,13.33
2023-02-18T18:31:51.331Z,12.85
2023-02-18T18:34:17.733Z,13.16
2023-02-18T18:36:44.083Z,13.01
2023-02-18T18:39:10.435Z,13.34
2023-02-18T18:41:36.829Z,13.08
2023-02-18T18:44:03.190Z,13.36
2023-02-18T18:46:29.613Z,13.71
2023-02-18T18:48:56.044Z,13.61
2023-02-18T18:51:22.682Z,13.36
2023-02-18T18:53:49.060Z,13.04
2023-02-18T18:56:15.467Z,13.35
2023-02-18T18:58:41.879Z,13.10
2023-02-18T19:01:08.688Z,12.95
2023-02-18T19:03:35.387Z,12.92
2023-02-18T19:06:01.756Z,12.54
2023-02-18T19:08:28.105Z,12.20
2023-02-18T19:10:54.459Z,11.23
2023-02-18T19:13:20.805Z,11.10
2023-02-18T19:15:47.220Z,11.93
2023-02-18T19:18:13.574Z,11.70
2023-02-18T19:20:40.902Z,11.47
2023-02-18T19:23:09.037Z,10.98
2023-02-18T19:25:35.392Z,10.86
2023-02-18T19:28:01.735Z,10.74
2023-02-18T19:30:28.160Z,11.40
2023-02-18T19:32:54.527Z,11.52
2023-02-18T19:35:20.906Z,11.73
2023-02-18T19:37:47.259Z,11.50
2023-02-18T19:40:13.605Z,11.17
2023-02-18T19:42:39.985Z,10.79
2023-02-18T19:45:06.333Z,11.02
2023-02-18T19:47:32.672Z,10.15
2023-02-18T19:49:59.017Z,10.85
2023-02-18T19:52:25.408Z,10.41
2023-02-18T19:54:51.805Z,9.86
2023-02-18T19:57:18.186Z,9.67
2023-02-18T19:59:44.580Z,9.42
2023-02-18T20:02:10.938Z,9.26
2023-02-18T20:04:37.275Z,8.78
2023-02-18T20:07:03.615Z,9.37
2023-02-18T20:09:29.967Z,9.25
2023-02-18T20:11:56.311Z,9.17
2023-02-18T20:14:22.646Z,8.96
2023-02-18T20:16:49.038Z,8.72
2023-02-18T20:19:15.424Z,8.69
2023-02-18T20:21:41.775Z,8.87
2023-02-18T20:24:08.111Z,8.84
2023-02-18T20:26:34.450Z,8.75
2023-02-18T20:29:00.794Z,8.30
2023-02-18T20:31:27.226Z,8.54
2023-02-18T20:33:53.669Z,8.56
2023-02-18T20:36:20.060Z,8.85
2023-02-18T20:38:46.393Z,9.48
2023-02-18T20:41:12.978Z,9.03
2023-02-18T20:43:39.370Z,9.41
2023-02-18T20:46:05.781Z,9.13
2023-02-18T20:48:32.133Z,8.99
2023-02-18T20:50:58.510Z,9.11
2023-02-18T20:53:24.869Z,9.90
2023-02-18T20:55:51.240Z,9.45
2023-02-18T20:58:17.588Z,9.80
2023-02-18T21:00:43.961Z,9.26
2023-02-18T21:03:10.317Z,9.18
2023-02-18T21:05:36.693Z,8.95
2023-02-18T21:08:03.041Z,9.22
2023-02-18T21:10:29.408Z,9.30
2023-02-18T21:12:55.796Z,9.26
2023-02-18T21:15:22.153Z,9.49
2023-02-18T21:17:48.526Z,8.86
2023-02-18T21:20:14.873Z,8.71
2023-02-18T21:22:41.212Z,10.21
2023-02-18T21:25:07.616Z,10.81
2023-02-18T21:27:33.969Z,11.43
2023-02-18T21:30:00.410Z,11.32
2023-02-18T21:32:27.000Z,10.94
2023-02-18T21:34:53.557Z,13.57
2023-02-18T21:37:19.957Z,14.09
2023-02-18T21:39:46.343Z,12.87
2023-02-18T21:42:12.753Z,12.03
2023-02-18T21:44:43.102Z,11.70
2023-02-18T21:47:09.564Z,11.33
2023-02-18T21:49:35.933Z,12.33
2023-02-18T21:52:02.319Z,11.74
2023-02-18T21:54:28.710Z,11.26
2023-02-18T21:56:55.072Z,10.92
2023-02-18T21:59:21.468Z,11.63
2023-02-18T22:01:47.851Z,10.17
2023-02-18T22:04:14.277Z,8.86
2023-02-18T22:06:40.674Z,8.84
2023-02-18T22:09:07.065Z,9.49
2023-02-18T22:11:33.457Z,10.22
2023-02-18T22:13:59.826Z,9.77
2023-02-18T22:16:26.182Z,9.35
2023-02-18T22:18:52.546Z,9.55
2023-02-18T22:21:21.002Z,10.16
2023-02-18T22:23:47.485Z,11.40
2023-02-18T22:26:13.857Z,11.17
2023-02-18T22:28:40.250Z,11.02
2023-02-18T22:31:06.632Z,11.25
2023-02-18T22:33:32.975Z,11.47
2023-02-18T22:35:59.352Z,10.95
2023-02-18T22:38:25.743Z,10.35
2023-02-18T22:40:52.100Z,10.38
2023-02-18T22:43:18.449Z,10.47
2023-02-18T22:45:44.804Z,10.26
2023-02-18T22:48:11.156Z,9.86
2023-02-18T22:50:37.492Z,9.73
2023-02-18T22:53:03.869Z,8.72
2023-02-18T22:55:30.231Z,8.59
2023-02-18T22:57:56.568Z,8.96
2023-02-18T23:00:22.908Z,8.27
2023-02-18T23:02:49.289Z,8.50
2023-02-18T23:05:15.641Z,8.56
2023-02-18T23:07:41.992Z,8.64
2023-02-18T23:10:08.340Z,8.65
2023-02-18T23:12:34.723Z,8.81
2023-02-18T23:15:01.078Z,8.21
2023-02-18T23:17:27.432Z,7.89
2023-02-18T23:19:53.771Z,8.38
2023-02-18T23:22:20.185Z,7.79
2023-02-18T23:24:46.564Z,8.09
2023-02-18T23:27:12.938Z,8.84
2023-02-18T23:29:39.318Z,8.53
2023-02-18T23:32:05.709Z,8.99
2023-02-18T23:34:32.088Z,8.38
2023-02-18T23:36:58.468Z,8.81
2023-02-18T23:39:24.861Z,8.79
2023-02-18T23:41:51.227Z,8.67
2023-02-18T23:44:17.613Z,9.18
2023-02-18T23:46:43.966Z,9.49
2023-02-18T23:49:10.308Z,10.74
2023-02-18T23:51:36.692Z,9.42
2023-02-18T23:54:03.036Z,8.99
2023-02-18T23:56:29.421Z,9.00
2023-02-18T23:58:55.815Z,8.33
